Time;durP1;ratioP1;P1;durP2;ratioP2;P2;SDS_P1;SDS_P2;PMS_P1;PMS_P2;Temp;Humidity;BMP_temperature;BMP_pressure;BME280_temperature;BME280_humidity;BME280_pressure;Samples;Min_cycle;Max_cycle;Signal;HPM_P1;HPM_P2
2022/12/13 00:01:23;;;;;;;13.97;10.03;;;-1.40;64.60;-2.50;95687.00;;;;5109656;28;20539;-79
2022/12/13 00:03:52;;;;;;;12.90;9.90;;;-1.40;64.40;-2.50;95680.00;;;;5109566;28;20564;-79
2022/12/13 00:06:19;;;;;;;13.33;10.40;;;-1.50;64.30;-2.50;95683.00;;;;5110022;28;20543;-79
2022/12/13 00:08:47;;;;;;;12.03;9.13;;;-1.50;64.70;-2.50;95682.00;;;;5110130;28;20967;-79
2022/12/13 00:11:15;;;;;;;11.47;9.73;;;-1.50;64.90;-2.50;95675.00;;;;5109108;28;20472;-79
2022/12/13 00:13:45;;;;;;;14.17;10.97;;;-1.50;64.90;-2.50;95671.00;;;;5109617;28;20894;-79
2022/12/13 00:16:16;;;;;;;13.03;10.73;;;-1.50;65.10;-2.50;95673.00;;;;5110924;28;21002;-79
2022/12/13 00:18:43;;;;;;;12.83;10.70;;;-1.50;65.20;-2.50;95666.00;;;;5108547;28;20469;-79
2022/12/13 00:21:15;;;;;;;13.47;9.73;;;-1.50;65.20;-2.60;95667.00;;;;5109371;28;20551;-79
2022/12/13 00:23:42;;;;;;;11.63;9.70;;;-1.50;64.90;-2.60;95665.00;;;;5108775;28;20853;-78
2022/12/13 00:26:13;;;;;;;13.17;10.00;;;-1.60;64.80;-2.60;95658.00;;;;5110210;28;20902;-79
2022/12/13 00:28:41;;;;;;;13.47;10.43;;;-1.60;64.60;-2.60;95665.00;;;;5110008;28;20540;-79
2022/12/13 00:31:10;;;;;;;14.47;10.60;;;-1.60;64.40;-2.70;95663.00;;;;5109827;28;20517;-81
2022/12/13 00:33:38;;;;;;;12.00;9.77;;;-1.60;64.30;-2.70;95660.00;;;;5108723;28;20903;-78
2022/12/13 00:36:07;;;;;;;12.47;9.80;;;-1.70;64.60;-2.70;95664.00;;;;5109196;28;20466;-79
2022/12/13 00:38:35;;;;;;;12.23;10.07;;;-1.70;65.40;-2.70;95654.00;;;;5110209;28;20877;-79
2022/12/13 00:41:12;;;;;;;13.70;9.90;;;-1.70;64.70;-2.80;95651.00;;;;5109534;28;20464;-79
2022/12/13 00:43:39;;;;;;;14.23;11.10;;;-1.70;64.70;-2.80;95647.00;;;;5109442;28;20561;-79
2022/12/13 00:46:13;;;;;;;13.97;10.73;;;-1.70;64.70;-2.80;95634.00;;;;5108295;28;20453;-79
2022/12/13 00:48:40;;;;;;;11.87;9.63;;;-1.70;64.70;-2.80;95642.00;;;;5108813;28;20892;-79
2022/12/13 00:51:09;;;;;;;11.67;9.37;;;-1.80;64.70;-2.90;95631.00;;;;5110401;28;20491;-81
2022/12/13 00:53:36;;;;;;;11.23;8.97;;;-1.80;64.40;-2.90;95628.00;;;;5108890;28;20446;-79
2022/12/13 00:56:05;;;;;;;12.50;10.30;;;-1.80;64.50;-2.90;95639.00;;;;5107570;28;20912;-79
2022/12/13 00:58:32;;;;;;;10.87;9.37;;;-1.80;64.50;-2.90;95646.00;;;;5105496;28;20510;-79
2022/12/13 01:01:11;;;;;;;12.90;9.83;;;-1.80;64.10;-2.90;95631.00;;;;5109898;28;20484;-79
2022/12/13 01:03:40;;;;;;;11.93;9.77;;;-1.90;63.90;-3.00;95627.00;;;;5108548;28;21018;-79
2022/12/13 01:06:11;;;;;;;12.33;9.47;;;-1.90;64.10;-3.00;95632.00;;;;5110301;28;20472;-80
2022/12/13 01:08:39;;;;;;;12.73;10.53;;;-1.90;64.30;-3.00;95633.00;;;;5108743;28;20531;-79
2022/12/13 01:11:07;;;;;;;11.27;9.37;;;-1.90;64.40;-3.00;95617.00;;;;5109232;28;20529;-79
2022/12/13 01:13:35;;;;;;;11.40;9.77;;;-1.90;64.40;-3.00;95621.00;;;;5108222;28;20532;-79
2022/12/13 01:16:05;;;;;;;15.60;11.67;;;-2.00;64.50;-3.00;95618.00;;;;5110127;28;20568;-79
2022/12/13 01:18:34;;;;;;;12.40;9.90;;;-2.00;64.30;-3.00;95624.00;;;;5109731;28;20494;-79
2022/12/13 01:21:05;;;;;;;13.13;10.47;;;-2.00;64.10;-3.10;95621.00;;;;5110951;28;20516;-79
2022/12/13 01:23:33;;;;;;;13.10;9.73;;;-2.00;64.40;-3.10;95614.00;;;;5109587;28;20453;-79
2022/12/13 01:26:03;;;;;;;15.20;10.77;;;-2.00;64.50;-3.10;95623.00;;;;5111978;28;20520;-79
2022/12/13 01:28:30;;;;;;;13.83;11.20;;;-2.00;64.30;-3.10;95621.00;;;;5112184;28;20843;-79
2022/12/13 01:31:01;;;;;;;12.27;10.13;;;-2.00;64.50;-3.10;95616.00;;;;5110391;28;20479;-79
2022/12/13 01:33:29;;;;;;;13.00;9.47;;;-2.00;64.60;-3.10;95621.00;;;;5110915;28;20444;-79
2022/12/13 01:36:02;;;;;;;13.90;10.43;;;-2.00;64.50;-3.10;95632.00;;;;5112973;28;20567;-80
2022/12/13 01:38:30;;;;;;;13.83;11.50;;;-2.10;64.20;-3.10;95621.00;;;;5113490;28;20552;-79
2022/12/13 01:40:57;;;;;;;13.80;10.63;;;-2.10;64.30;-3.10;95624.00;;;;5114626;28;20538;-78
2022/12/13 01:43:26;;;;;;;14.77;11.20;;;-2.10;64.20;-3.10;95619.00;;;;5116833;28;20452;-80
2022/12/13 01:45:54;;;;;;;13.60;10.87;;;-2.10;64.20;-3.20;95614.00;;;;5114396;28;20535;-79
2022/12/13 01:48:26;;;;;;;14.97;10.93;;;-2.10;64.30;-3.20;95615.00;;;;5112461;28;21003;-79
2022/12/13 01:51:01;;;;;;;12.60;10.73;;;-2.10;64.30;-3.20;95618.00;;;;5113093;28;20884;-79
2022/12/13 01:53:32;;;;;;;15.10;11.20;;;-2.20;64.20;-3.20;95619.00;;;;5114419;28;20527;-78
2022/12/13 01:56:08;;;;;;;18.57;12.33;;;-2.20;64.30;-3.20;95607.00;;;;5102242;28;21081;-79
2022/12/13 01:58:37;;;;;;;13.77;9.90;;;-2.20;64.40;-3.20;95608.00;;;;5113976;28;20825;-79
2022/12/13 02:01:05;;;;;;;13.10;10.43;;;-2.20;64.50;-3.20;95605.00;;;;5113496;28;20528;-78
2022/12/13 02:03:34;;;;;;;13.33;10.50;;;-2.20;64.70;-3.20;95602.00;;;;5112922;28;20888;-79
2022/12/13 02:06:10;;;;;;;16.23;11.20;;;-2.20;64.60;-3.30;95603.00;;;;5113948;28;20630;-79
2022/12/13 02:08:40;;;;;;;13.67;10.60;;;-2.20;64.70;-3.30;95605.00;;;;5111559;28;20580;-79
2022/12/13 02:11:07;;;;;;;13.63;10.53;;;-2.20;64.70;-3.30;95600.00;;;;5111517;28;20464;-79
2022/12/13 02:13:34;;;;;;;11.97;10.10;;;-2.20;64.80;-3.30;95590.00;;;;5111885;28;20464;-79
2022/12/13 02:16:12;;;;;;;12.90;10.30;;;-2.30;64.60;-3.30;95588.00;;;;5114055;28;20920;-79
2022/12/13 02:19:00;;;;;;;14.23;10.37;;;-2.20;64.60;-3.30;95590.00;;;;5110578;28;20468;-79
2022/12/13 02:21:40;;;;;;;13.93;10.20;;;-2.30;64.60;-3.30;95596.00;;;;5116214;28;20483;-79
2022/12/13 02:24:48;;;;;;;14.00;9.70;;;-2.30;65.10;-3.40;95587.00;;;;5119045;28;20839;-79
2022/12/13 02:27:57;;;;;;;14.67;10.40;;;-2.30;64.20;-3.40;95591.00;;;;5112535;28;21027;-79
2022/12/13 02:30:33;;;;;;;12.87;10.03;;;-2.30;64.10;-3.40;95585.00;;;;5117026;28;20472;-78
2022/12/13 02:33:26;;;;;;;12.07;9.73;;;-2.30;64.20;-3.40;95580.00;;;;5116365;28;20501;-79
2022/12/13 02:36:06;;;;;;;14.07;10.37;;;-2.30;64.60;-3.40;95575.00;;;;5112179;28;20515;-78
2022/12/13 02:38:44;;;;;;;11.70;9.57;;;-2.30;64.60;-3.40;95570.00;;;;5111223;28;20468;-79
2022/12/13 02:41:21;;;;;;;13.23;9.73;;;-2.30;64.50;-3.40;95572.00;;;;5109219;28;20450;-79
2022/12/13 02:43:57;;;;;;;12.77;9.93;;;-2.30;65.30;-3.40;95568.00;;;;5111419;28;20614;-79
2022/12/13 02:46:31;;;;;;;11.57;9.70;;;-2.30;64.80;-3.40;95561.00;;;;5113523;28;20959;-79
2022/12/13 02:49:00;;;;;;;11.77;9.07;;;-2.30;64.70;-3.40;95565.00;;;;5112242;28;20531;-79
2022/12/13 02:51:29;;;;;;;12.50;9.43;;;-2.40;64.40;-3.50;95556.00;;;;5110410;28;21005;-80
2022/12/13 02:53:57;;;;;;;11.47;9.13;;;-2.40;64.50;-3.40;95558.00;;;;5111500;28;20535;-79
2022/12/13 02:56:24;;;;;;;12.30;9.87;;;-2.20;64.90;-3.40;95552.00;;;;5111847;28;20499;-79
2022/12/13 02:58:56;;;;;;;15.07;11.10;;;-2.40;64.90;-3.40;95545.00;;;;5111826;28;20471;-79
2022/12/13 03:01:48;;;;;;;15.63;10.63;;;-2.40;64.60;-3.50;95540.00;;;;5111083;28;20539;-79
2022/12/13 03:04:30;;;;;;;12.57;9.20;;;-2.40;64.60;-3.40;95539.00;;;;5110131;28;20476;-79
2022/12/13 03:07:07;;;;;;;12.07;9.57;;;-2.40;64.60;-3.40;95540.00;;;;5106378;22;21309;-81
2022/12/13 03:09:55;;;;;;;11.67;9.47;;;-2.40;64.80;-3.40;95538.00;;;;5066897;28;20535;-80
2022/12/13 03:15:29;;;;;;;13.10;10.13;;;-2.40;64.60;-3.40;95532.00;;;;5070704;28;20462;-79
2022/12/13 03:18:05;;;;;;;10.70;8.80;;;-2.40;64.70;-3.40;95530.00;;;;5056290;28;20526;-79
2022/12/13 03:20:33;;;;;;;12.10;9.47;;;-2.40;64.90;-3.40;95531.00;;;;5051444;28;20534;-79
2022/12/13 03:23:00;;;;;;;11.43;9.10;;;-2.40;64.70;-3.40;95527.00;;;;5051772;28;20478;-79
2022/12/13 03:25:31;;;;;;;12.37;9.37;;;-2.40;64.50;-3.40;95527.00;;;;5050183;28;20479;-81
2022/12/13 03:27:58;;;;;;;10.23;8.53;;;-2.40;64.80;-3.40;95516.00;;;;5051163;28;20850;-79
2022/12/13 03:30:25;;;;;;;10.90;9.27;;;-2.40;64.80;-3.40;95526.00;;;;5049975;28;20455;-79
2022/12/13 03:32:52;;;;;;;11.37;9.30;;;-2.30;65.00;-3.40;95528.00;;;;5050466;28;21348;-79
2022/12/13 03:35:20;;;;;;;10.77;8.93;;;-2.30;64.80;-3.40;95529.00;;;;5050932;28;20491;-79
2022/12/13 03:38:00;;;;;;;12.77;9.10;;;-2.30;65.00;-3.40;95530.00;;;;5049273;28;20551;-79
2022/12/13 03:40:30;;;;;;;10.80;7.93;;;-2.30;64.80;-3.40;95526.00;;;;5049511;28;20459;-80
2022/12/13 03:42:57;;;;;;;10.97;8.73;;;-2.30;65.40;-3.40;95526.00;;;;5048949;28;20456;-81
2022/12/13 03:45:24;;;;;;;10.53;8.70;;;-2.30;64.70;-3.40;95524.00;;;;5049629;28;20550;-80
2022/12/13 03:47:51;;;;;;;11.50;9.07;;;-2.30;64.80;-3.40;95522.00;;;;5049639;28;21005;-79
2022/12/13 03:50:20;;;;;;;12.40;8.83;;;-2.30;65.00;-3.40;95523.00;;;;5049245;28;20451;-79
2022/12/13 03:52:50;;;;;;;10.63;8.70;;;-2.30;65.00;-3.30;95518.00;;;;5051401;28;20456;-83
2022/12/13 03:55:18;;;;;;;13.07;9.30;;;-2.30;65.10;-3.30;95505.00;;;;5050286;28;20467;-81
2022/12/13 03:57:46;;;;;;;12.90;9.47;;;-2.30;65.30;-3.30;95512.00;;;;5049977;28;20920;-80
2022/12/13 04:00:14;;;;;;;12.13;8.30;;;-2.30;65.30;-3.30;95509.00;;;;5049103;28;20493;-79
2022/12/13 04:02:41;;;;;;;10.93;8.90;;;-2.30;65.40;-3.30;95507.00;;;;5051149;28;20479;-80
2022/12/13 04:05:09;;;;;;;12.27;9.23;;;-2.30;65.40;-3.30;95507.00;;;;5049242;28;20543;-79
2022/12/13 04:07:37;;;;;;;10.63;8.90;;;-2.30;65.60;-3.20;95503.00;;;;5049321;28;20576;-79
2022/12/13 04:10:06;;;;;;;13.37;9.37;;;-2.30;66.20;-3.20;95511.00;;;;5047821;28;20526;-81
2022/12/13 04:15:18;;;;;;;10.77;8.80;;;-2.20;65.50;-3.20;95498.00;;;;5049760;28;20470;-80
2022/12/13 04:17:45;;;;;;;11.30;9.30;;;-2.20;65.50;-3.20;95505.00;;;;5053168;28;20521;-80
2022/12/13 04:20:12;;;;;;;12.20;9.50;;;-2.20;65.60;-3.20;95514.00;;;;5048529;28;20910;-80
2022/12/13 04:22:41;;;;;;;13.73;9.37;;;-2.20;65.70;-3.10;95517.00;;;;5047857;28;20538;-80
2022/12/13 04:25:08;;;;;;;14.67;9.93;;;-2.20;65.90;-3.10;95510.00;;;;5049034;28;20538;-79
2022/12/13 04:27:36;;;;;;;12.80;10.10;;;-2.10;66.10;-3.00;95506.00;;;;5055714;28;20497;-81
2022/12/13 04:30:05;;;;;;;12.87;10.00;;;-2.10;66.10;-3.00;95513.00;;;;5058948;28;20463;-80
2022/12/13 04:32:33;;;;;;;17.33;9.77;;;-2.10;66.20;-2.90;95518.00;;;;5057567;28;20490;-80
2022/12/13 04:35:00;;;;;;;12.90;10.07;;;-2.10;66.30;-2.90;95512.00;;;;5057770;28;20523;-80
2022/12/13 04:37:27;;;;;;;11.63;10.00;;;-2.00;66.40;-2.90;95507.00;;;;5058198;28;20514;-81
2022/12/13 04:39:55;;;;;;;14.87;9.80;;;-2.00;66.20;-2.80;95508.00;;;;5060641;28;20514;-81
2022/12/13 04:42:23;;;;;;;12.77;9.23;;;-2.00;66.40;-2.70;95508.00;;;;5057590;28;20881;-80
2022/12/13 04:44:50;;;;;;;11.50;9.23;;;-1.90;66.50;-2.70;95518.00;;;;5056651;28;21437;-81
2022/12/13 04:47:17;;;;;;;12.40;9.37;;;-1.90;66.70;-2.60;95512.00;;;;5032029;23;1119752;-80
2022/12/13 04:49:44;;;;;;;12.17;9.43;;;-1.80;66.80;-2.60;95509.00;;;;5058271;28;20287;-80
2022/12/13 04:52:11;;;;;;;13.60;10.27;;;-1.80;67.00;-2.50;95503.00;;;;5060078;28;20487;-80
2022/12/13 04:54:39;;;;;;;12.93;9.77;;;-1.70;67.20;-2.40;95502.00;;;;5058589;28;21022;-82
2022/12/13 04:57:11;;;;;;;12.47;9.80;;;-1.70;67.20;-2.40;95507.00;;;;5058861;28;21127;-81
2022/12/13 04:59:39;;;;;;;15.23;10.03;;;-1.60;67.50;-2.30;95506.00;;;;5060550;28;20431;-82
2022/12/13 05:02:07;;;;;;;11.77;9.40;;;-1.50;67.50;-2.30;95511.00;;;;5060240;28;20490;-81
2022/12/13 05:04:35;;;;;;;12.23;9.93;;;-1.50;67.40;-2.20;95499.00;;;;5063965;28;20794;-81
2022/12/13 05:07:02;;;;;;;13.83;10.17;;;-1.40;67.40;-2.20;95504.00;;;;5067037;28;20519;-81
2022/12/13 05:09:30;;;;;;;14.07;9.90;;;-1.40;67.40;-2.10;95500.00;;;;5061622;28;20466;-81
2022/12/13 05:11:57;;;;;;;14.63;10.47;;;-1.30;67.50;-2.00;95495.00;;;;5066959;28;20518;-81
2022/12/13 05:14:25;;;;;;;13.13;9.50;;;-1.30;67.60;-2.00;95498.00;;;;5067813;28;20809;-81
2022/12/13 05:16:53;;;;;;;13.33;9.13;;;-1.10;67.70;-2.00;95494.00;;;;5070367;28;20564;-81
2022/12/13 05:19:20;;;;;;;14.40;9.67;;;-1.20;67.70;-1.90;95505.00;;;;5072407;28;20493;-81
2022/12/13 05:21:49;;;;;;;12.70;9.17;;;-1.20;67.70;-1.80;95506.00;;;;5071392;28;20446;-81
2022/12/13 05:24:16;;;;;;;13.47;9.67;;;-1.10;67.60;-1.80;95500.00;;;;5072304;28;20558;-81
2022/12/13 05:26:43;;;;;;;12.53;9.33;;;-1.00;67.60;-1.70;95506.00;;;;5069030;28;21180;-82
2022/12/13 05:29:11;;;;;;;12.53;9.33;;;-1.00;67.60;-1.70;95508.00;;;;5071465;28;20438;-82
2022/12/13 05:31:40;;;;;;;12.50;9.23;;;-0.90;67.70;-1.70;95505.00;;;;5069486;28;20451;-81
2022/12/13 05:34:07;;;;;;;11.23;8.93;;;-0.90;67.60;-1.70;95496.00;;;;5068572;28;20490;-82
2022/12/13 05:36:34;;;;;;;12.77;9.33;;;-0.90;67.50;-1.70;95497.00;;;;5069325;28;20589;-82
2022/12/13 05:39:01;;;;;;;12.97;9.03;;;-0.90;67.50;-1.60;95502.00;;;;5066871;28;20585;-82
2022/12/13 05:41:34;;;;;;;13.23;8.80;;;-0.70;67.40;-1.60;95503.00;;;;5070443;28;20497;-82
2022/12/13 05:44:01;;;;;;;13.87;9.60;;;-0.80;67.50;-1.60;95509.00;;;;5069872;28;20485;-82
2022/12/13 05:46:28;;;;;;;13.10;9.77;;;-0.80;67.30;-1.60;95503.00;;;;5066529;28;20487;-82
2022/12/13 05:48:57;;;;;;;13.97;9.47;;;-0.80;67.30;-1.60;95506.00;;;;5069625;28;20511;-82
2022/12/13 05:51:24;;;;;;;15.23;10.47;;;-0.70;67.40;-1.60;95496.00;;;;5067137;28;20460;-81
2022/12/13 05:53:51;;;;;;;14.10;10.37;;;-0.70;67.30;-1.60;95495.00;;;;5065906;28;20459;-82
2022/12/13 05:56:18;;;;;;;14.63;10.43;;;-0.70;67.80;-1.60;95490.00;;;;5065484;28;21140;-82
2022/12/13 05:58:45;;;;;;;14.20;9.73;;;-0.70;66.80;-1.60;95487.00;;;;5066216;28;20482;-82
2022/12/13 06:01:15;;;;;;;14.67;10.00;;;-0.70;66.60;-1.60;95484.00;;;;5066089;28;20453;-82
2022/12/13 06:03:42;;;;;;;14.60;10.57;;;-0.70;66.50;-1.60;95484.00;;;;5065306;28;20458;-82
2022/12/13 06:06:12;;;;;;;14.43;10.17;;;-0.70;66.60;-1.60;95491.00;;;;5066816;28;20510;-81
2022/12/13 06:08:40;;;;;;;18.90;10.93;;;-0.70;66.70;-1.60;95481.00;;;;5066614;28;20969;-82
2022/12/13 06:11:08;;;;;;;16.80;11.40;;;-0.70;66.70;-1.60;95481.00;;;;5067491;28;20458;-82
2022/12/13 06:13:35;;;;;;;18.47;11.70;;;-0.70;66.90;-1.60;95481.00;;;;5067824;28;20490;-82
2022/12/13 06:16:05;;;;;;;17.57;11.43;;;-0.70;67.10;-1.50;95479.00;;;;5067519;28;20490;-81
2022/12/13 06:18:35;;;;;;;17.63;11.27;;;-0.70;67.20;-1.50;95475.00;;;;5067377;28;20510;-81
2022/12/13 06:21:06;;;;;;;16.80;11.53;;;-0.70;67.00;-1.50;95486.00;;;;5066310;28;20519;-81
2022/12/13 06:23:35;;;;;;;15.93;11.13;;;-0.70;67.00;-1.50;95485.00;;;;5066579;28;20889;-82
2022/12/13 06:26:04;;;;;;;17.80;11.67;;;-0.70;67.00;-1.50;95487.00;;;;5066742;28;20913;-81
2022/12/13 06:28:31;;;;;;;16.43;11.30;;;-0.70;66.90;-1.50;95490.00;;;;5064936;28;20510;-82
2022/12/13 06:31:00;;;;;;;16.73;11.07;;;-0.70;66.80;-1.50;95491.00;;;;5064647;28;20447;-83
2022/12/13 06:33:28;;;;;;;15.50;10.83;;;-0.70;66.60;-1.50;95488.00;;;;5065731;28;20453;-81
2022/12/13 06:35:57;;;;;;;18.53;11.97;;;-0.70;66.70;-1.50;95492.00;;;;5067802;28;21013;-83
2022/12/13 06:38:25;;;;;;;17.23;11.50;;;-0.70;66.60;-1.60;95493.00;;;;5065533;28;20973;-81
2022/12/13 06:40:53;;;;;;;18.27;11.53;;;-0.70;66.50;-1.60;95495.00;;;;5067243;28;20480;-82
2022/12/13 06:43:21;;;;;;;19.00;11.43;;;-0.70;66.50;-1.60;95500.00;;;;5064283;28;20447;-82
2022/12/13 06:45:49;;;;;;;18.97;11.93;;;-0.70;66.50;-1.60;95500.00;;;;5064213;28;20482;-81
2022/12/13 06:48:16;;;;;;;17.87;11.77;;;-0.70;66.50;-1.60;95496.00;;;;5066320;28;20496;-83
2022/12/13 06:50:43;;;;;;;17.37;11.67;;;-0.70;66.40;-1.60;95497.00;;;;5068834;28;20470;-84
2022/12/13 06:53:10;;;;;;;19.93;11.60;;;-0.70;66.40;-1.50;95494.00;;;;5065163;28;20446;-83
2022/12/13 06:55:37;;;;;;;21.33;12.63;;;-0.80;66.30;-1.50;95495.00;;;;5059095;28;20526;-83
2022/12/13 06:58:31;;;;;;;15.00;10.93;;;-0.70;66.30;-1.50;95500.00;;;;5066652;28;20481;-83
2022/12/13 07:01:02;;;;;;;18.37;12.17;;;-0.70;66.50;-1.40;95500.00;;;;5067385;28;20478;-83
2022/12/13 07:03:30;;;;;;;16.77;10.97;;;-0.60;66.60;-1.40;95502.00;;;;5066076;28;20506;-83
2022/12/13 07:05:59;;;;;;;16.83;11.43;;;-0.70;66.40;-1.40;95506.00;;;;5066663;28;20498;-83
2022/12/13 07:08:26;;;;;;;19.57;11.83;;;-0.70;66.40;-1.40;95504.00;;;;5069156;28;20466;-83
2022/12/13 07:10:54;;;;;;;16.07;11.20;;;-0.80;66.30;-1.40;95510.00;;;;5064717;28;20500;-83
2022/12/13 07:13:22;;;;;;;17.97;11.03;;;-0.80;66.30;-1.40;95526.00;;;;5067638;28;21208;-83
2022/12/13 07:15:56;;;;;;;15.57;11.50;;;-0.70;66.40;-1.40;95520.00;;;;5066701;28;20510;-83
2022/12/13 07:18:23;;;;;;;17.07;11.33;;;-0.70;66.20;-1.40;95521.00;;;;5066470;28;20441;-83
2022/12/13 07:20:56;;;;;;;18.10;11.70;;;-0.80;66.10;-1.40;95509.00;;;;5066163;28;20466;-83
2022/12/13 07:23:23;;;;;;;16.03;11.50;;;-0.70;66.20;-1.40;95509.00;;;;5066950;28;21111;-83
2022/12/13 07:25:54;;;;;;;15.43;10.83;;;-0.80;66.30;-1.40;95513.00;;;;5064502;28;20486;-82
2022/12/13 07:28:22;;;;;;;16.97;11.27;;;-0.80;66.10;-1.40;95506.00;;;;5067446;28;20526;-83
2022/12/13 07:30:50;;;;;;;16.20;11.27;;;-0.80;66.00;-1.40;95516.00;;;;5068836;28;20467;-81
2022/12/13 07:33:18;;;;;;;14.53;10.80;;;-0.80;65.90;-1.40;95511.00;;;;5073357;28;20483;-82
2022/12/13 07:35:45;;;;;;;17.60;10.97;;;-0.80;65.80;-1.50;95511.00;;;;5073255;28;20526;-82
2022/12/13 07:38:13;;;;;;;16.73;10.90;;;-0.80;65.90;-1.50;95518.00;;;;5071270;28;20525;-82
2022/12/13 07:40:40;;;;;;;15.93;11.03;;;-0.80;65.80;-1.50;95495.00;;;;5074317;28;20529;-83
2022/12/13 07:43:07;;;;;;;15.93;11.30;;;-0.80;65.60;-1.50;95488.00;;;;5071563;28;20500;-82
2022/12/13 07:45:36;;;;;;;15.27;10.60;;;-0.80;66.30;-1.60;95491.00;;;;5073094;28;20482;-84
2022/12/13 07:48:07;;;;;;;14.97;11.43;;;-0.90;65.50;-1.60;95492.00;;;;5072458;28;20867;-84
2022/12/13 07:50:36;;;;;;;15.33;10.90;;;-0.90;65.40;-1.60;95506.00;;;;5074470;28;20447;-83
2022/12/13 07:53:05;;;;;;;17.87;12.00;;;-0.90;65.40;-1.60;95511.00;;;;5072420;28;20518;-83
2022/12/13 07:55:33;;;;;;;17.50;11.23;;;-0.90;65.30;-1.70;95517.00;;;;5068634;28;20450;-82
2022/12/13 07:58:05;;;;;;;17.70;11.23;;;-0.90;65.40;-1.70;95523.00;;;;5073198;28;20517;-82
2022/12/13 08:00:32;;;;;;;16.00;11.27;;;-0.90;65.30;-1.70;95526.00;;;;5070627;28;20447;-83
2022/12/13 08:03:00;;;;;;;15.80;10.47;;;-1.00;65.30;-1.70;95539.00;;;;5066076;28;21391;-83
2022/12/13 08:05:28;;;;;;;17.07;11.37;;;-1.00;65.50;-1.70;95529.00;;;;5066091;28;20518;-83
2022/12/13 08:08:00;;;;;;;15.90;11.00;;;-1.00;65.60;-1.70;95522.00;;;;5067035;28;20549;-82
2022/12/13 08:10:27;;;;;;;15.50;11.07;;;-1.00;65.70;-1.70;95515.00;;;;5068927;28;20525;-83
2022/12/13 08:12:54;;;;;;;14.83;10.70;;;-1.00;65.50;-1.60;95527.00;;;;5067374;28;20458;-83
2022/12/13 08:15:22;;;;;;;17.87;11.33;;;-1.00;65.50;-1.60;95526.00;;;;5071050;28;20457;-82
2022/12/13 08:17:49;;;;;;;17.37;12.20;;;-1.00;65.80;-1.60;95521.00;;;;5067617;28;20559;-83
2022/12/13 08:20:18;;;;;;;17.50;11.23;;;-1.00;65.70;-1.60;95525.00;;;;5067160;28;20482;-83
2022/12/13 08:22:57;;;;;;;18.90;11.67;;;-1.00;65.70;-1.60;95514.00;;;;5063594;28;20488;-83
2022/12/13 08:25:28;;;;;;;16.70;11.23;;;-0.90;66.00;-1.50;95514.00;;;;5072289;28;20469;-83
2022/12/13 08:27:55;;;;;;;17.13;11.77;;;-0.90;66.10;-1.50;95511.00;;;;5066007;28;20447;-83
2022/12/13 08:30:22;;;;;;;15.43;11.23;;;-0.90;66.00;-1.50;95524.00;;;;5067829;28;20466;-82
2022/12/13 08:32:50;;;;;;;16.97;11.97;;;-0.90;66.10;-1.40;95522.00;;;;5069078;28;20451;-83
2022/12/13 08:35:18;;;;;;;15.37;11.37;;;-0.80;66.20;-1.40;95516.00;;;;5070650;28;20518;-83
2022/12/13 08:37:45;;;;;;;16.17;11.50;;;-0.80;66.30;-1.40;95511.00;;;;5068715;28;21133;-83
2022/12/13 08:40:13;;;;;;;17.50;11.93;;;-0.80;66.30;-1.30;95521.00;;;;5068922;28;20478;-82
2022/12/13 08:42:40;;;;;;;17.43;11.17;;;-0.80;66.50;-1.30;95528.00;;;;5072421;28;20478;-82
2022/12/13 08:45:09;;;;;;;16.63;10.57;;;-0.70;66.50;-1.20;95531.00;;;;5067298;28;20523;-82
2022/12/13 08:47:37;;;;;;;15.20;10.50;;;-0.70;66.30;-1.20;95532.00;;;;5069772;28;20475;-83
2022/12/13 08:50:05;;;;;;;17.03;10.73;;;-0.60;66.30;-1.20;95528.00;;;;5067315;28;20458;-82
2022/12/13 08:52:34;;;;;;;14.43;10.63;;;-0.60;66.40;-1.10;95535.00;;;;5067540;28;20491;-83
2022/12/13 08:55:01;;;;;;;15.83;11.07;;;-0.60;66.40;-1.10;95534.00;;;;5068261;28;20507;-82
2022/12/13 08:57:29;;;;;;;16.17;11.70;;;-0.60;66.60;-1.10;95540.00;;;;5065876;28;20518;-82
2022/12/13 08:59:57;;;;;;;15.47;10.57;;;-0.50;66.60;-1.00;95540.00;;;;5070541;28;20446;-82
2022/12/13 09:02:24;;;;;;;16.63;11.60;;;-0.50;66.70;-1.00;95547.00;;;;5069107;28;20431;-82
2022/12/13 09:04:51;;;;;;;17.97;11.17;;;-0.40;66.70;-0.90;95545.00;;;;5065676;28;20944;-82
2022/12/13 09:07:18;;;;;;;17.07;10.77;;;-0.40;66.80;-0.90;95547.00;;;;5063937;28;20549;-82
2022/12/13 09:09:45;;;;;;;17.37;11.70;;;-0.40;66.90;-0.80;95551.00;;;;5067357;28;20489;-82
2022/12/13 09:12:12;;;;;;;16.07;10.37;;;-0.30;67.00;-0.80;95559.00;;;;5067021;28;20530;-82
2022/12/13 09:14:43;;;;;;;15.00;10.40;;;-0.30;67.70;-0.70;95544.00;;;;5072121;28;20929;-82
2022/12/13 09:17:11;;;;;;;15.70;11.33;;;-0.20;66.90;-0.70;95546.00;;;;5073631;28;20513;-82
2022/12/13 09:19:39;;;;;;;16.60;11.40;;;-0.20;66.90;-0.60;95556.00;;;;5067901;28;20517;-82
2022/12/13 09:22:06;;;;;;;15.23;10.13;;;-0.10;66.80;-0.60;95537.00;;;;5072552;28;20506;-83
2022/12/13 09:24:33;;;;;;;17.33;10.97;;;-0.10;66.90;-0.50;95548.00;;;;5070976;28;20466;-82
2022/12/13 09:27:01;;;;;;;16.77;10.50;;;0.00;67.00;-0.50;95556.00;;;;5071922;28;20514;-82
2022/12/13 09:29:28;;;;;;;15.73;11.13;;;0.00;67.00;-0.40;95551.00;;;;5069033;28;20461;-82
2022/12/13 09:31:56;;;;;;;17.53;11.83;;;0.10;67.10;-0.30;95545.00;;;;5072365;28;20466;-82
2022/12/13 09:34:24;;;;;;;15.23;10.47;;;0.20;67.10;-0.20;95536.00;;;;5067840;28;20458;-82
2022/12/13 09:37:03;;;;;;;15.63;10.83;;;0.20;67.00;-0.20;95530.00;;;;5066305;28;20496;-84
2022/12/13 09:39:31;;;;;;;15.27;10.80;;;0.30;67.10;-0.10;95521.00;;;;5067485;28;20452;-83
2022/12/13 09:41:59;;;;;;;15.37;10.37;;;0.50;67.30;0.00;95522.00;;;;5071112;28;20458;-82
2022/12/13 09:44:30;;;;;;;17.97;11.23;;;1.70;68.30;0.20;95531.00;;;;5071469;28;20458;-82
2022/12/13 09:47:02;;;;;;;17.00;11.20;;;0.60;67.90;0.40;95531.00;;;;5071849;28;20509;-82
2022/12/13 09:49:36;;;;;;;15.83;11.10;;;0.70;68.10;0.60;95520.00;;;;5068691;28;20484;-82
2022/12/13 09:52:11;;;;;;;16.83;10.83;;;0.90;68.50;0.80;95529.00;;;;5068935;28;20585;-83
2022/12/13 09:54:40;;;;;;;17.07;11.23;;;1.10;68.80;1.00;95533.00;;;;5066265;28;20905;-82
2022/12/13 09:57:18;;;;;;;17.33;10.90;;;1.20;68.80;1.20;95530.00;;;;5070147;28;20573;-83
2022/12/13 09:59:47;;;;;;;16.57;11.00;;;1.40;68.70;1.40;95524.00;;;;5071399;28;20467;-82
2022/12/13 10:02:24;;;;;;;14.87;9.97;;;1.60;68.80;1.60;95531.00;;;;5067720;28;20434;-82
2022/12/13 10:04:52;;;;;;;15.90;10.83;;;1.80;69.60;1.80;95522.00;;;;5069021;28;20537;-83
2022/12/13 10:07:22;;;;;;;13.77;9.60;;;2.00;69.00;2.00;95527.00;;;;5069705;28;20470;-83
2022/12/13 10:10:00;;;;;;;13.87;8.97;;;2.30;68.80;2.20;95523.00;;;;5073045;28;20490;-83
2022/12/13 10:12:29;;;;;;;15.60;9.57;;;2.40;68.50;2.30;95513.00;;;;5071706;28;20447;-82
2022/12/13 10:15:01;;;;;;;11.30;8.17;;;2.70;68.40;2.50;95514.00;;;;5071796;28;20500;-82
2022/12/13 10:17:38;;;;;;;12.37;8.90;;;2.80;68.00;2.70;95518.00;;;;5070612;28;21213;-82
2022/12/13 10:20:08;;;;;;;12.53;8.17;;;3.00;67.80;2.80;95527.00;;;;5068369;28;20907;-82
2022/12/13 10:22:35;;;;;;;12.10;8.27;;;3.20;67.50;2.90;95530.00;;;;5068219;28;20454;-83
2022/12/13 10:25:06;;;;;;;11.00;8.13;;;3.30;66.80;3.00;95514.00;;;;5065358;28;20559;-83
2022/12/13 10:27:38;;;;;;;10.23;7.57;;;3.50;66.50;3.10;95525.00;;;;5069031;28;20514;-82
2022/12/13 10:30:11;;;;;;;13.47;8.70;;;3.60;65.80;3.10;95524.00;;;;5067433;28;21469;-83
2022/12/13 10:32:52;;;;;;;11.67;8.33;;;3.60;65.20;3.10;95520.00;;;;5069811;28;20942;-82
2022/12/13 10:35:26;;;;;;;11.93;8.10;;;3.70;64.60;3.10;95518.00;;;;5066329;28;20462;-82
2022/12/13 10:37:54;;;;;;;11.07;8.07;;;3.70;64.40;3.10;95515.00;;;;5065358;28;20909;-82
2022/12/13 10:40:31;;;;;;;13.77;8.87;;;3.70;64.00;3.00;95507.00;;;;5065732;28;20813;-82
2022/12/13 10:43:12;;;;;;;11.47;8.07;;;3.60;63.70;3.00;95506.00;;;;5070182;28;20453;-82
2022/12/13 10:45:41;;;;;;;12.27;7.93;;;3.60;63.60;2.90;95503.00;;;;5068391;28;20450;-82
2022/12/13 10:48:21;;;;;;;11.60;7.73;;;3.60;63.70;2.90;95505.00;;;;5065659;28;20552;-82
2022/12/13 10:50:59;;;;;;;11.10;8.30;;;3.50;63.30;2.80;95513.00;;;;5067536;28;20445;-82
2022/12/13 10:53:33;;;;;;;12.23;8.60;;;3.50;63.40;2.80;95512.00;;;;5064621;28;20475;-82
2022/12/13 10:56:02;;;;;;;10.83;7.80;;;3.50;63.20;2.70;95511.00;;;;5066028;28;20473;-82
2022/12/13 11:01:19;;;;;;;11.83;7.63;;;3.20;62.80;2.60;95506.00;;;;5054366;28;20483;-86
2022/12/13 11:03:58;;;;;;;13.30;8.17;;;3.20;63.10;2.50;95508.00;;;;5055344;28;20454;-85
2022/12/13 11:06:28;;;;;;;8.70;6.97;;;3.10;62.90;2.50;95498.00;;;;5054943;28;21020;-85